createdAt,value
2018-06-09T00:00:48.026Z,67.63
2018-06-09T00:03:16.599Z,67.06
2018-06-09T00:05:45.251Z,67.81
2018-06-09T00:08:13.863Z,67.99
2018-06-09T00:10:42.481Z,67.65
2018-06-09T00:13:11.060Z,67.68
2018-06-09T00:15:39.670Z,67.91
2018-06-09T00:18:08.289Z,67.75
2018-06-09T00:20:36.873Z,67.45
2018-06-09T00:23:05.453Z,68.15
2018-06-09T00:25:48.949Z,68.85
2018-06-09T00:28:17.594Z,68.22
2018-06-09T00:30:46.171Z,68.00
2018-06-09T00:33:14.791Z,68.25
2018-06-09T00:35:43.401Z,68.56
2018-06-09T00:38:12.031Z,67.92
2018-06-09T00:40:40.646Z,68.30
2018-06-09T00:43:09.341Z,68.80
2018-06-09T00:45:38.030Z,68.91
2018-06-09T00:48:06.713Z,68.41
2018-06-09T00:50:35.350Z,69.00
2018-06-09T00:53:03.936Z,69.09
2018-06-09T00:55:32.533Z,69.00
2018-06-09T00:58:01.112Z,68.62
2018-06-09T01:00:29.754Z,68.88
2018-06-09T01:02:58.342Z,69.54
2018-06-09T01:05:26.928Z,69.05
2018-06-09T01:07:55.553Z,70.05
2018-06-09T01:10:25.074Z,70.14
2018-06-09T01:12:53.653Z,69.38
2018-06-09T01:15:22.277Z,70.08
2018-06-09T01:17:50.857Z,69.42
2018-06-09T01:20:19.518Z,69.19
2018-06-09T01:22:48.109Z,68.91
2018-06-09T01:25:16.739Z,68.86
2018-06-09T01:27:45.329Z,68.97
2018-06-09T01:30:13.981Z,69.88
2018-06-09T01:32:42.584Z,70.20
2018-06-09T01:35:11.204Z,69.85
2018-06-09T01:37:39.799Z,70.11
2018-06-09T01:40:08.410Z,69.55
2018-06-09T01:42:37.037Z,69.24
2018-06-09T01:45:05.728Z,69.29
2018-06-09T01:47:34.357Z,69.51
2018-06-09T01:50:02.974Z,69.10
2018-06-09T01:52:31.569Z,69.66
2018-06-09T01:55:00.242Z,68.91
2018-06-09T01:57:28.873Z,69.57
2018-06-09T01:59:57.465Z,69.32
2018-06-09T02:02:26.071Z,69.47
2018-06-09T02:04:54.967Z,70.23
2018-06-09T02:07:23.629Z,70.42
2018-06-09T02:09:52.214Z,70.11
2018-06-09T02:12:20.867Z,70.94
2018-06-09T02:14:49.505Z,71.27
2018-06-09T02:17:18.085Z,70.99
2018-06-09T02:19:46.709Z,71.01
2018-06-09T02:22:15.324Z,72.25
2018-06-09T02:24:43.952Z,72.45
2018-06-09T02:27:12.509Z,72.11
2018-06-09T02:29:41.105Z,72.37
2018-06-09T02:32:09.751Z,72.52
2018-06-09T02:34:38.398Z,73.12
2018-06-09T02:37:07.006Z,73.43
2018-06-09T02:39:35.608Z,73.86
2018-06-09T02:42:04.250Z,74.33
2018-06-09T02:44:32.836Z,75.02
2018-06-09T02:47:01.441Z,74.98
2018-06-09T02:49:30.014Z,74.68
2018-06-09T02:51:58.613Z,75.18
2018-06-09T02:54:27.317Z,74.73
2018-06-09T02:56:55.922Z,76.04
2018-06-09T02:59:24.546Z,75.23
2018-06-09T03:01:53.933Z,75.66
2018-06-09T03:04:22.510Z,76.02
2018-06-09T03:06:51.142Z,76.19
2018-06-09T03:09:19.725Z,76.21
2018-06-09T03:11:48.299Z,76.85
2018-06-09T03:14:16.927Z,76.59
2018-06-09T03:16:45.541Z,76.57
2018-06-09T03:19:14.163Z,76.65
2018-06-09T03:21:42.741Z,76.95
2018-06-09T03:24:11.357Z,76.93
2018-06-09T03:26:39.954Z,76.54
2018-06-09T03:29:08.587Z,76.39
2018-06-09T03:31:37.186Z,76.85
2018-06-09T03:34:05.865Z,77.40
2018-06-09T03:36:34.509Z,77.56
2018-06-09T03:39:03.235Z,77.31
2018-06-09T03:41:31.855Z,77.93
2018-06-09T03:44:00.472Z,77.18
2018-06-09T03:46:29.058Z,77.81
2018-06-09T03:48:57.707Z,77.81
2018-06-09T03:51:26.402Z,77.22
2018-06-09T03:53:55.023Z,77.54
2018-06-09T03:56:23.648Z,77.36
2018-06-09T03:58:52.248Z,77.51
2018-06-09T04:01:20.855Z,76.74
2018-06-09T04:03:49.436Z,75.98
2018-06-09T04:06:18.046Z,76.23
2018-06-09T04:08:46.650Z,75.40
2018-06-09T04:11:15.245Z,76.48
2018-06-09T04:13:43.881Z,77.14
2018-06-09T04:16:12.465Z,77.05
2018-06-09T04:18:41.099Z,76.72
2018-06-09T04:21:09.695Z,76.70
2018-06-09T04:23:38.326Z,77.34
2018-06-09T04:26:06.953Z,76.46
2018-06-09T04:28:35.559Z,76.78
2018-06-09T04:31:04.203Z,76.21
2018-06-09T04:33:32.847Z,76.16
2018-06-09T04:36:01.449Z,76.45
2018-06-09T04:38:30.061Z,75.88
2018-06-09T04:40:58.650Z,76.74
2018-06-09T04:43:27.221Z,76.39
2018-06-09T04:45:55.818Z,75.79
2018-06-09T04:48:24.441Z,76.33
2018-06-09T04:50:53.025Z,75.41
2018-06-09T04:53:21.693Z,75.44
2018-06-09T04:55:51.082Z,75.47
2018-06-09T04:58:19.681Z,75.05
2018-06-09T05:00:48.297Z,75.76
2018-06-09T05:03:16.851Z,75.72
2018-06-09T05:05:45.446Z,76.50
2018-06-09T05:08:14.050Z,76.85
2018-06-09T05:10:42.770Z,75.97
2018-06-09T05:13:11.383Z,76.03
2018-06-09T05:15:40.029Z,75.88
2018-06-09T05:18:08.641Z,75.66
2018-06-09T05:20:37.224Z,74.67
2018-06-09T05:23:05.890Z,74.11
2018-06-09T05:25:34.510Z,74.47
2018-06-09T05:28:03.485Z,73.99
2018-06-09T05:30:32.078Z,73.33
2018-06-09T05:33:00.772Z,73.45
2018-06-09T05:35:29.435Z,72.97
2018-06-09T05:37:58.096Z,72.16
2018-06-09T05:40:26.699Z,71.71
2018-06-09T05:42:55.361Z,72.14
2018-06-09T05:45:23.932Z,72.02
2018-06-09T05:47:52.558Z,72.18
2018-06-09T05:50:21.167Z,71.83
2018-06-09T05:52:49.853Z,72.05
2018-06-09T05:55:18.525Z,70.66
2018-06-09T05:57:47.177Z,70.09
2018-06-09T06:00:15.807Z,70.77
2018-06-09T06:02:44.433Z,69.96
2018-06-09T06:05:13.066Z,70.26
2018-06-09T06:07:41.663Z,70.47
2018-06-09T06:10:10.326Z,68.96
2018-06-09T06:12:38.917Z,67.54
2018-06-09T06:15:07.561Z,65.39
2018-06-09T06:17:36.189Z,63.12
2018-06-09T06:20:04.883Z,62.15
2018-06-09T06:22:33.514Z,60.48
2018-06-09T06:25:02.119Z,59.71
2018-06-09T06:27:30.691Z,59.01
2018-06-09T06:29:59.250Z,56.09
2018-06-09T06:32:27.843Z,56.49
2018-06-09T06:34:56.475Z,55.80
2018-06-09T06:37:25.073Z,53.56
2018-06-09T06:39:53.703Z,54.01
2018-06-09T06:42:22.315Z,54.42
2018-06-09T06:44:50.918Z,53.99
2018-06-09T06:47:19.609Z,52.05
2018-06-09T06:49:48.139Z,53.04
2018-06-09T06:52:16.782Z,50.48
2018-06-09T06:54:45.385Z,47.94
2018-06-09T06:57:14.015Z,48.60
2018-06-09T06:59:42.558Z,48.61
2018-06-09T07:02:11.214Z,48.37
2018-06-09T07:04:39.790Z,48.78
2018-06-09T07:07:08.315Z,48.67
2018-06-09T07:09:36.891Z,49.31
2018-06-09T07:12:05.488Z,49.36
2018-06-09T07:14:34.063Z,48.61
2018-06-09T07:17:02.658Z,48.29
2018-06-09T07:19:31.542Z,49.33
2018-06-09T07:22:00.501Z,48.91
2018-06-09T07:24:29.155Z,48.07
2018-06-09T07:26:58.075Z,48.21
2018-06-09T07:29:26.659Z,48.80
2018-06-09T07:31:55.268Z,50.46
2018-06-09T07:34:23.858Z,49.59
2018-06-09T07:36:52.418Z,49.47
2018-06-09T07:39:21.071Z,47.87
2018-06-09T07:41:49.718Z,48.17
2018-06-09T07:44:18.343Z,50.97
2018-06-09T07:46:46.989Z,51.12
2018-06-09T07:49:15.586Z,52.68
2018-06-09T07:51:44.180Z,50.47
2018-06-09T07:54:12.757Z,49.74
2018-06-09T07:56:41.344Z,51.53
2018-06-09T07:59:09.971Z,51.41
2018-06-09T08:01:38.550Z,51.42
2018-06-09T08:04:07.258Z,50.88
2018-06-09T08:06:35.802Z,49.67
2018-06-09T08:09:05.591Z,50.83
2018-06-09T08:11:34.195Z,50.87
2018-06-09T08:14:04.169Z,49.33
2018-06-09T08:16:32.793Z,51.02
2018-06-09T08:19:01.406Z,50.59
2018-06-09T08:21:30.027Z,49.05
2018-06-09T08:23:58.582Z,49.20
2018-06-09T08:26:27.167Z,49.26
2018-06-09T08:28:56.165Z,50.67
2018-06-09T08:31:24.773Z,49.69
2018-06-09T08:33:53.347Z,48.55
2018-06-09T08:36:22.010Z,45.91
2018-06-09T08:38:50.587Z,46.99
2018-06-09T08:41:19.208Z,44.34
2018-06-09T08:43:47.788Z,45.39
2018-06-09T08:46:16.395Z,43.89
2018-06-09T08:48:45.233Z,44.03
2018-06-09T08:51:13.817Z,44.49
2018-06-09T08:53:42.576Z,43.54
2018-06-09T08:56:11.200Z,45.33
2018-06-09T08:58:39.797Z,43.81
2018-06-09T09:01:08.408Z,45.21
2018-06-09T09:03:37.042Z,43.30
2018-06-09T09:06:05.598Z,42.80
2018-06-09T09:08:34.170Z,42.91
2018-06-09T09:11:02.749Z,41.77
2018-06-09T09:13:31.403Z,45.04
2018-06-09T09:16:00.478Z,45.20
2018-06-09T09:18:29.083Z,44.01
2018-06-09T09:20:57.653Z,44.24
2018-06-09T09:23:26.242Z,44.45
2018-06-09T09:25:54.828Z,43.22
2018-06-09T09:28:23.391Z,43.40
2018-06-09T09:30:51.970Z,44.32
2018-06-09T09:33:20.935Z,42.76
2018-06-09T09:35:49.555Z,41.09
2018-06-09T09:38:18.174Z,41.61
2018-06-09T09:40:46.783Z,39.87
2018-06-09T09:43:15.358Z,41.05
2018-06-09T09:45:43.948Z,40.27
2018-06-09T09:48:12.534Z,38.47
2018-06-09T09:50:41.151Z,38.64
2018-06-09T09:53:09.747Z,38.87
2018-06-09T09:55:38.306Z,42.77
2018-06-09T09:58:06.876Z,43.53
2018-06-09T10:00:37.545Z,41.05
2018-06-09T10:03:06.503Z,40.33
2018-06-09T10:05:35.389Z,40.37
2018-06-09T10:08:04.596Z,41.44
2018-06-09T10:10:33.203Z,42.87
2018-06-09T10:13:02.135Z,42.94
2018-06-09T10:15:30.719Z,41.51
2018-06-09T10:17:59.285Z,40.85
2018-06-09T10:20:27.869Z,40.88
2018-06-09T10:22:56.816Z,42.20
2018-06-09T10:25:25.395Z,41.09
2018-06-09T10:27:54.351Z,40.24
2018-06-09T10:30:22.947Z,39.61
2018-06-09T10:32:51.559Z,39.76
2018-06-09T10:35:20.245Z,40.18
2018-06-09T10:37:48.838Z,39.52
2018-06-09T10:40:17.437Z,38.61
2018-06-09T10:42:46.234Z,39.92
2018-06-09T10:45:14.876Z,37.95
2018-06-09T10:47:43.499Z,37.96
2018-06-09T10:50:12.085Z,40.36
2018-06-09T10:52:40.639Z,39.89
2018-06-09T10:55:09.227Z,37.94
2018-06-09T10:57:37.838Z,37.36
2018-06-09T11:00:07.083Z,39.00
2018-06-09T11:02:35.695Z,39.10
2018-06-09T11:05:04.302Z,40.54
2018-06-09T11:07:32.918Z,39.12
2018-06-09T11:10:01.555Z,39.23
2018-06-09T11:12:30.105Z,40.46
2018-06-09T11:14:58.675Z,42.86
2018-06-09T11:17:27.327Z,43.03
2018-06-09T11:19:56.255Z,44.76
2018-06-09T11:22:24.928Z,44.96
2018-06-09T11:24:53.630Z,43.98
2018-06-09T11:27:22.319Z,44.29
2018-06-09T11:29:50.886Z,44.84
2018-06-09T11:32:19.492Z,45.03
2018-06-09T11:34:48.082Z,44.87
2018-06-09T11:37:16.690Z,44.56
2018-06-09T11:39:45.278Z,45.53
2018-06-09T11:42:13.862Z,45.82
2018-06-09T11:44:42.468Z,45.99
2018-06-09T11:47:11.089Z,46.85
2018-06-09T11:49:39.713Z,45.99
2018-06-09T11:52:08.324Z,46.21
2018-06-09T11:54:36.876Z,46.34
2018-06-09T11:57:05.447Z,49.15
2018-06-09T11:59:34.026Z,49.77
2018-06-09T12:02:02.653Z,50.06
2018-06-09T12:04:31.221Z,51.06
2018-06-09T12:06:59.843Z,49.78
2018-06-09T12:09:28.465Z,48.29
2018-06-09T12:11:57.082Z,47.61
2018-06-09T12:14:25.654Z,47.77
2018-06-09T12:16:54.212Z,48.14
2018-06-09T12:19:22.824Z,50.60
2018-06-09T12:21:51.425Z,49.13
2018-06-09T12:24:20.052Z,49.18
2018-06-09T12:26:48.708Z,49.92
2018-06-09T12:29:17.328Z,51.79
2018-06-09T12:31:45.918Z,52.33
2018-06-09T12:34:14.514Z,55.51
2018-06-09T12:36:43.105Z,60.64
2018-06-09T12:39:11.708Z,69.59
2018-06-09T12:41:40.299Z,77.87
2018-06-09T12:44:08.995Z,83.81
2018-06-09T12:46:37.641Z,87.81
2018-06-09T12:49:06.255Z,89.84
2018-06-09T12:51:34.853Z,91.03
2018-06-09T12:54:03.483Z,93.47
2018-06-09T12:56:32.098Z,94.54
2018-06-09T12:59:00.718Z,96.68
2018-06-09T13:01:29.351Z,97.03
2018-06-09T13:03:57.962Z,98.18
2018-06-09T13:06:26.818Z,98.98
2018-06-09T13:08:55.414Z,97.29
2018-06-09T13:11:24.594Z,99.86
2018-06-09T13:13:53.179Z,100.00
2018-06-09T13:16:21.769Z,100.00
2018-06-09T13:18:50.364Z,100.00
2018-06-09T13:21:18.997Z,97.65
2018-06-09T13:23:47.538Z,92.68
2018-06-09T13:26:16.209Z,90.38
2018-06-09T13:28:44.822Z,88.66
2018-06-09T13:31:13.439Z,82.66
2018-06-09T13:33:42.088Z,88.88
2018-06-09T13:36:10.733Z,89.37
2018-06-09T13:38:39.657Z,87.15
2018-06-09T13:41:08.226Z,83.75
2018-06-09T13:43:36.769Z,81.52
2018-06-09T13:46:05.342Z,86.29
2018-06-09T13:48:33.921Z,85.45
2018-06-09T13:51:02.465Z,86.09
2018-06-09T13:53:31.101Z,87.10
2018-06-09T13:55:59.675Z,84.92
2018-06-09T13:58:28.291Z,84.73
2018-06-09T14:00:56.915Z,85.27
2018-06-09T14:03:25.670Z,82.58
2018-06-09T14:05:54.295Z,82.96
2018-06-09T14:08:22.892Z,80.44
2018-06-09T14:10:51.530Z,83.92
2018-06-09T14:13:20.504Z,78.99
2018-06-09T14:15:49.104Z,76.03
2018-06-09T14:18:18.019Z,74.26
2018-06-09T14:20:46.617Z,68.80
2018-06-09T14:23:15.191Z,67.48
2018-06-09T14:25:43.835Z,66.67
2018-06-09T14:28:12.360Z,66.67
2018-06-09T14:30:41.033Z,65.66
2018-06-09T14:33:09.619Z,64.47
2018-06-09T14:35:38.205Z,65.03
2018-06-09T14:38:06.789Z,64.02
2018-06-09T14:40:35.376Z,64.72
2018-06-09T14:43:04.045Z,64.96
2018-06-09T14:45:32.684Z,65.45
2018-06-09T14:48:01.230Z,63.74
2018-06-09T14:50:29.940Z,64.23
2018-06-09T14:52:58.521Z,63.90
2018-06-09T14:55:27.115Z,63.03
2018-06-09T14:57:55.786Z,64.01
2018-06-09T15:00:25.340Z,63.24
2018-06-09T15:02:53.950Z,63.48
2018-06-09T15:05:22.661Z,62.02
2018-06-09T15:07:51.234Z,60.89
2018-06-09T15:10:19.859Z,60.07
2018-06-09T15:12:48.786Z,60.52
2018-06-09T15:15:17.519Z,60.41
2018-06-09T15:17:46.144Z,60.79
2018-06-09T15:20:15.174Z,59.94
2018-06-09T15:22:44.017Z,57.90
2018-06-09T15:25:12.491Z,58.90
2018-06-09T15:27:41.118Z,60.29
2018-06-09T15:30:09.814Z,62.82
2018-06-09T15:32:38.497Z,64.86
2018-06-09T15:35:07.194Z,67.33
2018-06-09T15:37:35.843Z,70.05
2018-06-09T15:40:05.137Z,70.88
2018-06-09T15:42:33.774Z,72.61
2018-06-09T15:45:02.347Z,74.98
2018-06-09T15:47:30.967Z,73.63
2018-06-09T15:49:59.545Z,73.86
2018-06-09T15:52:28.142Z,75.79
2018-06-09T15:54:56.767Z,80.10
2018-06-09T15:57:26.131Z,85.45
2018-06-09T15:59:54.825Z,87.22
2018-06-09T16:02:23.466Z,88.46
2018-06-09T16:04:52.019Z,88.67
2018-06-09T16:07:20.622Z,89.78
2018-06-09T16:09:49.240Z,91.91
2018-06-09T16:12:17.825Z,93.86
2018-06-09T16:14:46.460Z,94.04
2018-06-09T16:17:15.041Z,94.89
2018-06-09T16:19:43.646Z,95.27
2018-06-09T16:22:12.235Z,95.66
2018-06-09T16:24:40.875Z,95.93
2018-06-09T16:27:09.510Z,94.83
2018-06-09T16:29:38.142Z,93.72
2018-06-09T16:32:06.719Z,92.65
2018-06-09T16:34:35.299Z,92.65
2018-06-09T16:37:03.892Z,91.28
2018-06-09T16:39:32.605Z,89.41
2018-06-09T16:42:01.231Z,88.49
2018-06-09T16:44:29.786Z,86.95
2018-06-09T16:46:58.386Z,87.53
2018-06-09T16:49:26.970Z,86.62
2018-06-09T16:51:55.549Z,85.62
2018-06-09T16:54:24.119Z,84.09
2018-06-09T16:56:52.650Z,82.32
2018-06-09T16:59:21.302Z,82.50
2018-06-09T17:01:49.907Z,80.74
2018-06-09T17:04:18.502Z,81.15
2018-06-09T17:06:47.081Z,80.89
2018-06-09T17:09:15.741Z,80.59
2018-06-09T17:11:44.425Z,80.64
2018-06-09T17:14:13.025Z,80.64
2018-06-09T17:16:41.610Z,80.43
2018-06-09T17:19:10.193Z,80.20
2018-06-09T17:21:38.863Z,79.24
2018-06-09T17:24:07.474Z,79.66
2018-06-09T17:26:36.082Z,78.91
2018-06-09T17:29:04.671Z,78.16
2018-06-09T17:31:33.239Z,77.69
2018-06-09T17:36:29.401Z,77.62
2018-06-09T17:38:57.986Z,77.75
2018-06-09T17:41:26.554Z,76.85
2018-06-09T17:43:55.172Z,76.81
2018-06-09T17:46:23.789Z,76.53
2018-06-09T17:48:52.330Z,77.23
2018-06-09T17:51:20.919Z,77.93
2018-06-09T17:53:49.568Z,78.19
2018-06-09T17:56:18.154Z,77.89
2018-06-09T17:58:46.729Z,78.71
2018-06-09T18:01:15.922Z,79.17
2018-06-09T18:03:44.562Z,79.05
2018-06-09T18:06:13.160Z,79.77
2018-06-09T18:08:41.799Z,79.97
2018-06-09T18:11:10.374Z,80.36
2018-06-09T18:13:38.991Z,80.66
2018-06-09T18:16:07.610Z,80.06
2018-06-09T18:18:36.241Z,79.03
2018-06-09T18:21:04.845Z,77.97
2018-06-09T18:23:33.407Z,77.23
2018-06-09T18:26:02.041Z,75.79
2018-06-09T18:28:30.630Z,76.43
2018-06-09T18:30:59.314Z,76.50
2018-06-09T18:33:27.894Z,76.21
2018-06-09T18:35:56.462Z,76.52
2018-06-09T18:38:25.088Z,76.35
2018-06-09T18:40:53.747Z,74.62
2018-06-09T18:43:22.358Z,75.65
2018-06-09T18:45:51.003Z,75.90
2018-06-09T18:48:19.564Z,75.02
2018-06-09T18:50:48.228Z,75.38
2018-06-09T18:53:16.833Z,75.35
2018-06-09T18:55:45.451Z,75.67
2018-06-09T18:58:14.009Z,75.09
2018-06-09T19:00:42.683Z,75.01
2018-06-09T19:03:11.279Z,73.61
2018-06-09T19:05:39.866Z,74.15
2018-06-09T19:08:09.154Z,75.78
2018-06-09T19:10:37.718Z,77.89
2018-06-09T19:13:06.282Z,79.36
2018-06-09T19:15:34.846Z,80.27
2018-06-09T19:18:04.551Z,83.00
2018-06-09T19:20:33.131Z,83.24
2018-06-09T19:23:01.720Z,83.92
2018-06-09T19:25:30.328Z,87.28
2018-06-09T19:27:58.926Z,89.28
2018-06-09T19:30:27.844Z,91.93
2018-06-09T19:32:56.423Z,92.96
2018-06-09T19:35:24.988Z,93.46
2018-06-09T19:37:53.563Z,93.90
2018-06-09T19:40:22.202Z,95.22
2018-06-09T19:42:50.782Z,96.05
2018-06-09T19:45:19.379Z,98.21
2018-06-09T19:47:47.973Z,97.94
2018-06-09T19:50:16.583Z,98.38
2018-06-09T19:52:45.326Z,98.67
2018-06-09T19:55:14.035Z,98.42
2018-06-09T19:57:42.612Z,100.00
2018-06-09T20:00:11.289Z,100.00
2018-06-09T20:02:39.908Z,100.00
2018-06-09T20:05:08.504Z,100.00
2018-06-09T20:07:37.105Z,100.00
2018-06-09T20:10:05.800Z,100.00
2018-06-09T20:12:34.397Z,100.00
2018-06-09T20:15:03.230Z,100.00
2018-06-09T20:17:31.832Z,100.00
2018-06-09T20:20:00.651Z,100.00
2018-06-09T20:22:29.613Z,100.00
2018-06-09T20:24:58.321Z,100.00
2018-06-09T20:27:26.903Z,100.00
2018-06-09T20:29:55.714Z,100.00
2018-06-09T20:32:24.348Z,100.00
2018-06-09T20:34:52.962Z,100.00
2018-06-09T20:37:21.641Z,100.00
2018-06-09T20:39:50.226Z,100.00
2018-06-09T20:42:18.972Z,100.00
2018-06-09T20:44:47.625Z,100.00
2018-06-09T20:47:16.275Z,100.00
2018-06-09T20:49:44.983Z,100.00
2018-06-09T20:52:13.594Z,100.00
2018-06-09T20:54:42.298Z,100.00
2018-06-09T20:57:10.908Z,100.00
2018-06-09T20:59:39.487Z,100.00
2018-06-09T21:02:08.091Z,100.00
2018-06-09T21:04:36.714Z,100.00
2018-06-09T21:07:05.453Z,100.00
2018-06-09T21:09:34.038Z,100.00
2018-06-09T21:12:02.606Z,100.00
2018-06-09T21:14:31.283Z,100.00
2018-06-09T21:16:59.879Z,100.00
2018-06-09T21:19:28.464Z,100.00
2018-06-09T21:21:57.047Z,100.00
2018-06-09T21:24:25.688Z,100.00
2018-06-09T21:26:59.292Z,100.00
2018-06-09T21:29:33.992Z,100.00
2018-06-09T21:32:07.901Z,100.00
2018-06-09T21:34:52.966Z,100.00
2018-06-09T21:37:26.642Z,100.00
2018-06-09T21:40:00.360Z,100.00
2018-06-09T21:42:34.074Z,100.00
2018-06-09T21:45:08.326Z,100.00
2018-06-09T21:47:36.930Z,100.00
2018-06-09T21:50:05.688Z,100.00
2018-06-09T21:52:34.301Z,100.00
2018-06-09T21:55:02.913Z,100.00
2018-06-09T21:57:31.642Z,100.00
2018-06-09T22:00:00.224Z,100.00
2018-06-09T22:02:28.795Z,100.00
2018-06-09T22:04:57.374Z,100.00
2018-06-09T22:07:25.958Z,100.00
2018-06-09T22:09:54.655Z,100.00
2018-06-09T22:12:23.280Z,100.00
2018-06-09T22:14:51.858Z,100.00
2018-06-09T22:17:20.414Z,100.00
2018-06-09T22:19:49.103Z,100.00
2018-06-09T22:22:17.671Z,100.00
2018-06-09T22:24:46.268Z,100.00
2018-06-09T22:27:15.560Z,100.00
2018-06-09T22:29:44.139Z,100.00
2018-06-09T22:32:12.741Z,100.00
2018-06-09T22:34:41.329Z,100.00
2018-06-09T22:37:09.951Z,100.00
2018-06-09T22:39:38.578Z,100.00
2018-06-09T22:42:07.170Z,100.00
2018-06-09T22:44:35.735Z,100.00
2018-06-09T22:47:04.346Z,100.00
2018-06-09T22:49:32.935Z,100.00
2018-06-09T22:52:01.514Z,100.00
2018-06-09T22:54:30.063Z,100.00
2018-06-09T22:56:58.747Z,100.00
2018-06-09T22:59:27.320Z,100.00
2018-06-09T23:01:55.874Z,100.00
2018-06-09T23:04:24.556Z,100.00
2018-06-09T23:06:53.151Z,100.00
2018-06-09T23:09:21.814Z,100.00
2018-06-09T23:11:50.419Z,100.00
2018-06-09T23:14:18.982Z,100.00
2018-06-09T23:16:47.604Z,100.00
2018-06-09T23:19:16.261Z,100.00
2018-06-09T23:21:44.810Z,100.00
2018-06-09T23:24:13.386Z,100.00
2018-06-09T23:26:41.983Z,100.00
2018-06-09T23:29:10.563Z,100.00
2018-06-09T23:31:39.111Z,100.00
2018-06-09T23:34:07.716Z,100.00
2018-06-09T23:36:36.275Z,99.85
2018-06-09T23:39:06.354Z,99.17
2018-06-09T23:41:34.941Z,98.37
2018-06-09T23:44:03.533Z,97.47
2018-06-09T23:46:32.158Z,96.76
2018-06-09T23:49:00.863Z,96.09
2018-06-09T23:51:29.456Z,95.52
2018-06-09T23:53:58.008Z,96.17
2018-06-09T23:56:27.435Z,97.26
2018-06-09T23:58:56.020Z,97.09
